sensor_id;sensor_type;location;lat;lon;timestamp;pressure;altitude;pressure_sealevel;temperature;humidity
61324;BME280;47203;48.428;11.974;2023-04-26T00:00:17;96693.78;;;11.58;50.36
61324;BME280;47203;48.428;11.974;2023-04-26T00:02:22;96685.09;;;11.57;50.52
61324;BME280;47203;48.428;11.974;2023-04-26T00:04:28;96686.94;;;11.57;50.59
61324;BME280;47203;48.428;11.974;2023-04-26T00:06:33;96692.50;;;11.55;50.48
61324;BME280;47203;48.428;11.974;2023-04-26T00:08:38;96692.78;;;11.53;50.49
61324;BME280;47203;48.428;11.974;2023-04-26T00:10:46;96696.72;;;11.51;50.96
61324;BME280;47203;48.428;11.974;2023-04-26T00:12:51;96692.28;;;11.46;50.57
61324;BME280;47203;48.428;11.974;2023-04-26T00:14:56;96690.16;;;11.43;50.84
61324;BME280;47203;48.428;11.974;2023-04-26T00:17:00;96695.97;;;11.40;50.71
61324;BME280;47203;48.428;11.974;2023-04-26T00:19:06;96690.97;;;11.39;50.78
61324;BME280;47203;48.428;11.974;2023-04-26T00:21:11;96689.91;;;11.40;50.82
61324;BME280;47203;48.428;11.974;2023-04-26T00:23:15;96699.13;;;11.37;50.69
61324;BME280;47203;48.428;11.974;2023-04-26T00:25:20;96697.59;;;11.36;50.78
61324;BME280;47203;48.428;11.974;2023-04-26T00:27:28;96697.31;;;11.32;51.20
61324;BME280;47203;48.428;11.974;2023-04-26T00:29:33;96696.28;;;11.28;51.08
61324;BME280;47203;48.428;11.974;2023-04-26T00:31:38;96710.78;;;11.26;50.92
61324;BME280;47203;48.428;11.974;2023-04-26T00:33:43;96700.25;;;11.21;50.98
61324;BME280;47203;48.428;11.974;2023-04-26T00:35:48;96697.38;;;11.17;51.08
61324;BME280;47203;48.428;11.974;2023-04-26T00:37:53;96697.38;;;11.12;51.39
61324;BME280;47203;48.428;11.974;2023-04-26T00:39:57;96697.91;;;11.09;51.31
61324;BME280;47203;48.428;11.974;2023-04-26T00:42:03;96696.59;;;11.06;51.63
61324;BME280;47203;48.428;11.974;2023-04-26T00:44:10;96709.00;;;11.06;51.65
61324;BME280;47203;48.428;11.974;2023-04-26T00:46:15;96701.34;;;11.04;51.64
61324;BME280;47203;48.428;11.974;2023-04-26T00:48:20;96709.00;;;11.00;51.62
61324;BME280;47203;48.428;11.974;2023-04-26T00:50:25;96706.63;;;10.99;51.74
61324;BME280;47203;48.428;11.974;2023-04-26T00:52:30;96711.13;;;10.98;51.63
61324;BME280;47203;48.428;11.974;2023-04-26T00:54:35;96705.84;;;10.98;51.69
61324;BME280;47203;48.428;11.974;2023-04-26T00:56:41;96704.25;;;10.97;51.63
61324;BME280;47203;48.428;11.974;2023-04-26T00:58:46;96703.72;;;11.00;51.76
61324;BME280;47203;48.428;11.974;2023-04-26T01:00:54;96703.19;;;11.04;52.00
61324;BME280;47203;48.428;11.974;2023-04-26T01:02:59;96702.13;;;11.05;51.58
61324;BME280;47203;48.428;11.974;2023-04-26T01:05:04;96701.88;;;11.06;51.83
61324;BME280;47203;48.428;11.974;2023-04-26T01:07:10;96704.22;;;11.08;51.69
61324;BME280;47203;48.428;11.974;2023-04-26T01:09:16;96694.50;;;11.08;51.79
61324;BME280;47203;48.428;11.974;2023-04-26T01:11:21;96703.19;;;11.09;52.01
61324;BME280;47203;48.428;11.974;2023-04-26T01:13:27;96709.22;;;11.09;52.06
61324;BME280;47203;48.428;11.974;2023-04-26T01:15:32;96709.50;;;11.08;52.12
61324;BME280;47203;48.428;11.974;2023-04-26T01:17:40;96710.56;;;11.07;51.73
61324;BME280;47203;48.428;11.974;2023-04-26T01:19:46;96714.53;;;11.04;52.01
61324;BME280;47203;48.428;11.974;2023-04-26T01:21:51;96719.78;;;11.04;51.72
61324;BME280;47203;48.428;11.974;2023-04-26T01:23:59;96704.53;;;11.01;52.06
61324;BME280;47203;48.428;11.974;2023-04-26T01:26:04;96710.84;;;11.00;51.96
61324;BME280;47203;48.428;11.974;2023-04-26T01:28:09;96706.63;;;10.99;52.11
61324;BME280;47203;48.428;11.974;2023-04-26T01:30:14;96697.41;;;11.02;51.94
61324;BME280;47203;48.428;11.974;2023-04-26T01:32:18;96702.13;;;11.05;52.17
61324;BME280;47203;48.428;11.974;2023-04-26T01:34:23;96697.38;;;11.07;52.03
61324;BME280;47203;48.428;11.974;2023-04-26T01:36:28;96703.97;;;11.09;52.20
61324;BME280;47203;48.428;11.974;2023-04-26T01:38:33;96709.50;;;11.08;52.08
61324;BME280;47203;48.428;11.974;2023-04-26T01:40:40;96716.91;;;11.06;52.01
61324;BME280;47203;48.428;11.974;2023-04-26T01:42:46;96717.44;;;11.03;52.12
61324;BME280;47203;48.428;11.974;2023-04-26T01:44:51;96713.47;;;11.00;52.18
61324;BME280;47203;48.428;11.974;2023-04-26T01:46:56;96714.00;;;10.97;52.24
61324;BME280;47203;48.428;11.974;2023-04-26T01:49:01;96713.47;;;10.95;52.27
61324;BME280;47203;48.428;11.974;2023-04-26T01:51:06;96719.56;;;10.95;52.16
61324;BME280;47203;48.428;11.974;2023-04-26T01:53:11;96716.09;;;10.95;52.56
61324;BME280;47203;48.428;11.974;2023-04-26T01:55:16;96714.00;;;10.97;52.49
61324;BME280;47203;48.428;11.974;2023-04-26T01:57:24;96705.31;;;10.96;52.31
61324;BME280;47203;48.428;11.974;2023-04-26T01:59:29;96710.31;;;10.98;52.25
61324;BME280;47203;48.428;11.974;2023-04-26T02:01:33;96706.91;;;10.97;52.50
61324;BME280;47203;48.428;11.974;2023-04-26T02:03:38;96712.69;;;10.99;52.49
61324;BME280;47203;48.428;11.974;2023-04-26T02:05:45;96712.69;;;10.99;52.41
61324;BME280;47203;48.428;11.974;2023-04-26T02:07:49;96720.59;;;10.99;52.36
61324;BME280;47203;48.428;11.974;2023-04-26T02:09:54;96720.59;;;10.99;52.26
61324;BME280;47203;48.428;11.974;2023-04-26T02:11:59;96719.78;;;10.99;52.49
61324;BME280;47203;48.428;11.974;2023-04-26T02:14:07;96728.75;;;10.98;52.69
61324;BME280;47203;48.428;11.974;2023-04-26T02:16:12;96726.38;;;10.96;52.55
61324;BME280;47203;48.428;11.974;2023-04-26T02:18:19;96724.00;;;10.95;52.60
61324;BME280;47203;48.428;11.974;2023-04-26T02:20:24;96727.72;;;10.94;52.45
61324;BME280;47203;48.428;11.974;2023-04-26T02:22:29;96724.28;;;10.93;52.37
61324;BME280;47203;48.428;11.974;2023-04-26T02:24:34;96722.72;;;10.92;52.39
61324;BME280;47203;48.428;11.974;2023-04-26T02:26:39;96724.53;;;10.92;52.43
61324;BME280;47203;48.428;11.974;2023-04-26T02:28:44;96718.75;;;10.90;52.44
61324;BME280;47203;48.428;11.974;2023-04-26T02:30:51;96716.91;;;10.90;52.80
61324;BME280;47203;48.428;11.974;2023-04-26T02:32:58;96719.53;;;10.90;52.48
61324;BME280;47203;48.428;11.974;2023-04-26T02:35:04;96720.88;;;10.93;52.73
61324;BME280;47203;48.428;11.974;2023-04-26T02:37:09;96723.22;;;10.94;52.84
61324;BME280;47203;48.428;11.974;2023-04-26T02:39:14;96722.97;;;10.96;52.80
61324;BME280;47203;48.428;11.974;2023-04-26T02:41:19;96722.44;;;10.99;52.59
61324;BME280;47203;48.428;11.974;2023-04-26T02:43:24;96722.16;;;11.00;52.86
61324;BME280;47203;48.428;11.974;2023-04-26T02:45:29;96725.84;;;11.05;52.78
61324;BME280;47203;48.428;11.974;2023-04-26T02:47:36;96720.03;;;11.08;52.84
61324;BME280;47203;48.428;11.974;2023-04-26T02:49:41;96717.41;;;11.08;52.75
61324;BME280;47203;48.428;11.974;2023-04-26T02:51:46;96715.56;;;11.08;52.79
61324;BME280;47203;48.428;11.974;2023-04-26T02:53:51;96710.31;;;11.08;52.53
61324;BME280;47203;48.428;11.974;2023-04-26T02:55:57;96715.31;;;11.10;52.57
61324;BME280;47203;48.428;11.974;2023-04-26T02:58:02;96718.72;;;11.10;52.55
61324;BME280;47203;48.428;11.974;2023-04-26T03:00:09;96722.13;;;11.11;52.81
61324;BME280;47203;48.428;11.974;2023-04-26T03:02:15;96716.88;;;11.11;52.46
61324;BME280;47203;48.428;11.974;2023-04-26T03:04:22;96724.00;;;11.10;52.73
61324;BME280;47203;48.428;11.974;2023-04-26T03:06:28;96724.00;;;11.10;52.56
61324;BME280;47203;48.428;11.974;2023-04-26T03:08:34;96725.84;;;11.10;52.75
61324;BME280;47203;48.428;11.974;2023-04-26T03:10:38;96738.22;;;11.09;52.73
61324;BME280;47203;48.428;11.974;2023-04-26T03:12:44;96731.13;;;11.10;52.78
61324;BME280;47203;48.428;11.974;2023-04-26T03:14:49;96732.94;;;11.09;52.79
61324;BME280;47203;48.428;11.974;2023-04-26T03:16:54;96731.91;;;11.10;52.55
61324;BME280;47203;48.428;11.974;2023-04-26T03:18:59;96726.63;;;11.10;52.62
61324;BME280;47203;48.428;11.974;2023-04-26T03:21:07;96721.34;;;11.10;52.57
61324;BME280;47203;48.428;11.974;2023-04-26T03:23:12;96720.31;;;11.11;52.73
61324;BME280;47203;48.428;11.974;2023-04-26T03:25:17;96724.50;;;11.12;52.63
61324;BME280;47203;48.428;11.974;2023-04-26T03:27:22;96723.72;;;11.12;52.55
61324;BME280;47203;48.428;11.974;2023-04-26T03:29:28;96727.13;;;11.12;52.57
61324;BME280;47203;48.428;11.974;2023-04-26T03:31:33;96725.84;;;11.10;52.69
61324;BME280;47203;48.428;11.974;2023-04-26T03:33:38;96725.84;;;11.10;52.74
61324;BME280;47203;48.428;11.974;2023-04-26T03:35:42;96729.25;;;11.10;52.56
61324;BME280;47203;48.428;11.974;2023-04-26T03:37:50;96727.69;;;11.09;52.49
61324;BME280;47203;48.428;11.974;2023-04-26T03:39:58;96733.47;;;11.06;52.37
61324;BME280;47203;48.428;11.974;2023-04-26T03:42:04;96725.84;;;11.05;52.44
61324;BME280;47203;48.428;11.974;2023-04-26T03:44:09;96736.38;;;11.05;52.52
61324;BME280;47203;48.428;11.974;2023-04-26T03:46:16;96732.97;;;11.04;52.58
61324;BME280;47203;48.428;11.974;2023-04-26T03:48:22;96732.97;;;11.04;52.78
61324;BME280;47203;48.428;11.974;2023-04-26T03:50:28;96736.38;;;11.05;52.46
61324;BME280;47203;48.428;11.974;2023-04-26T03:52:34;96737.69;;;11.02;52.57
61324;BME280;47203;48.428;11.974;2023-04-26T03:54:41;96738.50;;;11.03;52.69
61324;BME280;47203;48.428;11.974;2023-04-26T03:56:46;96737.69;;;11.02;52.82
61324;BME280;47203;48.428;11.974;2023-04-26T03:58:52;96734.78;;;11.04;52.57
61324;BME280;47203;48.428;11.974;2023-04-26T04:00:59;96732.97;;;11.04;52.56
61324;BME280;47203;48.428;11.974;2023-04-26T04:03:05;96739.53;;;11.07;52.55
61324;BME280;47203;48.428;11.974;2023-04-26T04:05:11;96737.69;;;11.07;52.47
61324;BME280;47203;48.428;11.974;2023-04-26T04:07:16;96742.97;;;11.07;52.43
61324;BME280;47203;48.428;11.974;2023-04-26T04:09:22;96740.06;;;11.04;52.50
61324;BME280;47203;48.428;11.974;2023-04-26T04:11:30;96753.50;;;11.02;52.68
61324;BME280;47203;48.428;11.974;2023-04-26T04:13:36;96747.72;;;11.00;52.73
61324;BME280;47203;48.428;11.974;2023-04-26T04:15:40;96754.84;;;10.99;52.74
61324;BME280;47203;48.428;11.974;2023-04-26T04:17:45;96750.63;;;10.98;52.53
61324;BME280;47203;48.428;11.974;2023-04-26T04:19:50;96754.28;;;10.97;52.79
61324;BME280;47203;48.428;11.974;2023-04-26T04:21:55;96764.31;;;10.95;52.67
61324;BME280;47203;48.428;11.974;2023-04-26T04:24:01;96759.31;;;10.94;52.79
61324;BME280;47203;48.428;11.974;2023-04-26T04:26:06;96763.78;;;10.93;52.91
61324;BME280;47203;48.428;11.974;2023-04-26T04:28:16;96768.25;;;10.93;53.08
61324;BME280;47203;48.428;11.974;2023-04-26T04:30:23;96770.13;;;10.92;52.69
61324;BME280;47203;48.428;11.974;2023-04-26T04:32:28;96769.84;;;10.94;52.77
61324;BME280;47203;48.428;11.974;2023-04-26T04:34:33;96771.41;;;10.95;53.01
61324;BME280;47203;48.428;11.974;2023-04-26T04:36:40;96768.50;;;10.96;52.90
61324;BME280;47203;48.428;11.974;2023-04-26T04:38:45;96776.16;;;10.98;53.10
61324;BME280;47203;48.428;11.974;2023-04-26T04:40:52;96775.09;;;10.99;52.92
61324;BME280;47203;48.428;11.974;2023-04-26T04:42:59;96771.41;;;11.00;52.95
61324;BME280;47203;48.428;11.974;2023-04-26T04:45:09;96774.06;;;11.00;53.21
61324;BME280;47203;48.428;11.974;2023-04-26T04:47:16;96774.56;;;11.02;53.19
61324;BME280;47203;48.428;11.974;2023-04-26T04:49:21;96775.38;;;11.03;53.23
61324;BME280;47203;48.428;11.974;2023-04-26T04:51:27;96781.41;;;11.03;52.86
61324;BME280;47203;48.428;11.974;2023-04-26T04:53:31;96791.69;;;11.05;53.06
61324;BME280;47203;48.428;11.974;2023-04-26T04:55:36;96788.53;;;11.03;52.93
61324;BME280;47203;48.428;11.974;2023-04-26T04:57:43;96779.84;;;11.02;53.01
61324;BME280;47203;48.428;11.974;2023-04-26T04:59:47;96771.16;;;11.02;52.96
61324;BME280;47203;48.428;11.974;2023-04-26T05:01:55;96774.56;;;11.02;53.15
61324;BME280;47203;48.428;11.974;2023-04-26T05:04:00;96770.38;;;11.01;52.89
61324;BME280;47203;48.428;11.974;2023-04-26T05:06:07;96780.91;;;11.01;53.16
61324;BME280;47203;48.428;11.974;2023-04-26T05:08:11;96784.59;;;11.00;53.10
61324;BME280;47203;48.428;11.974;2023-04-26T05:10:17;96793.03;;;10.97;53.34
61324;BME280;47203;48.428;11.974;2023-04-26T05:12:23;96794.06;;;10.96;53.33
61324;BME280;47203;48.428;11.974;2023-04-26T05:14:29;96790.91;;;10.94;53.09
61324;BME280;47203;48.428;11.974;2023-04-26T05:16:33;96797.22;;;10.93;53.10
61324;BME280;47203;48.428;11.974;2023-04-26T05:18:41;96801.97;;;10.91;53.24
61324;BME280;47203;48.428;11.974;2023-04-26T05:20:46;96803.03;;;10.90;53.31
61324;BME280;47203;48.428;11.974;2023-04-26T05:22:51;96810.13;;;10.89;53.20
61324;BME280;47203;48.428;11.974;2023-04-26T05:24:56;96807.75;;;10.88;53.31
61324;BME280;47203;48.428;11.974;2023-04-26T05:27:01;96808.00;;;10.86;53.43
61324;BME280;47203;48.428;11.974;2023-04-26T05:29:15;96806.47;;;10.85;53.34
61324;BME280;47203;48.428;11.974;2023-04-26T05:31:35;96809.88;;;10.86;53.46
61324;BME280;47203;48.428;11.974;2023-04-26T05:34:02;96813.81;;;10.83;53.42
61324;BME280;47203;48.428;11.974;2023-04-26T05:36:11;96812.50;;;10.86;53.70
61324;BME280;47203;48.428;11.974;2023-04-26T05:38:16;96810.66;;;10.86;53.67
61324;BME280;47203;48.428;11.974;2023-04-26T05:40:20;96811.19;;;10.88;53.50
61324;BME280;47203;48.428;11.974;2023-04-26T05:42:25;96811.97;;;10.89;53.63
61324;BME280;47203;48.428;11.974;2023-04-26T05:44:30;96822.25;;;10.90;53.54
61324;BME280;47203;48.428;11.974;2023-04-26T05:46:35;96824.34;;;10.93;53.95
61324;BME280;47203;48.428;11.974;2023-04-26T05:48:42;96824.88;;;10.95;53.90
61324;BME280;47203;48.428;11.974;2023-04-26T05:50:50;96827.25;;;10.97;53.68
61324;BME280;47203;48.428;11.974;2023-04-26T05:52:55;96835.69;;;10.99;53.99
61324;BME280;47203;48.428;11.974;2023-04-26T05:55:00;96830.94;;;11.01;53.66
61324;BME280;47203;48.428;11.974;2023-04-26T05:57:06;96834.88;;;11.04;53.61
61324;BME280;47203;48.428;11.974;2023-04-26T05:59:12;96831.97;;;11.05;53.90
61324;BME280;47203;48.428;11.974;2023-04-26T06:01:18;96834.09;;;11.08;53.64
61324;BME280;47203;48.428;11.974;2023-04-26T06:03:23;96838.03;;;11.11;53.82
61324;BME280;47203;48.428;11.974;2023-04-26T06:05:29;96837.00;;;11.12;53.76
61324;BME280;47203;48.428;11.974;2023-04-26T06:07:37;96826.47;;;11.12;53.62
61324;BME280;47203;48.428;11.974;2023-04-26T06:09:42;96836.47;;;11.15;53.71
61324;BME280;47203;48.428;11.974;2023-04-26T06:11:47;96839.63;;;11.17;53.62
61324;BME280;47203;48.428;11.974;2023-04-26T06:13:53;96843.56;;;11.20;53.46
61324;BME280;47203;48.428;11.974;2023-04-26T06:15:59;96847.78;;;11.21;53.10
61324;BME280;47203;48.428;11.974;2023-04-26T06:18:04;96843.31;;;11.21;53.28
61324;BME280;47203;48.428;11.974;2023-04-26T06:20:09;96847.25;;;11.24;53.11
61324;BME280;47203;48.428;11.974;2023-04-26T06:22:14;96849.38;;;11.27;52.98
61324;BME280;47203;48.428;11.974;2023-04-26T06:24:25;96847.28;;;11.29;53.10
61324;BME280;47203;48.428;11.974;2023-04-26T06:26:30;96844.88;;;11.32;53.18
61324;BME280;47203;48.428;11.974;2023-04-26T06:28:36;96848.03;;;11.34;52.96
61324;BME280;47203;48.428;11.974;2023-04-26T06:30:43;96845.38;;;11.34;52.70
61324;BME280;47203;48.428;11.974;2023-04-26T06:32:48;96841.47;;;11.32;52.23
61324;BME280;47203;48.428;11.974;2023-04-26T06:34:53;96841.47;;;11.32;52.34
61324;BME280;47203;48.428;11.974;2023-04-26T06:36:58;96846.75;;;11.32;52.45
61324;BME280;47203;48.428;11.974;2023-04-26T06:39:04;96849.38;;;11.32;52.68
61324;BME280;47203;48.428;11.974;2023-04-26T06:41:11;96843.56;;;11.35;52.27
61324;BME280;47203;48.428;11.974;2023-04-26T06:43:16;96853.56;;;11.38;52.66
61324;BME280;47203;48.428;11.974;2023-04-26T06:45:30;96857.78;;;11.44;52.50
61324;BME280;47203;48.428;11.974;2023-04-26T06:47:35;96859.59;;;11.49;52.61
61324;BME280;47203;48.428;11.974;2023-04-26T06:49:40;96859.63;;;11.54;52.45
61324;BME280;47203;48.428;11.974;2023-04-26T06:51:45;96856.94;;;11.59;52.29
61324;BME280;47203;48.428;11.974;2023-04-26T06:53:50;96857.22;;;11.63;52.04
61324;BME280;47203;48.428;11.974;2023-04-26T06:55:55;96854.56;;;11.68;52.13
61324;BME280;47203;48.428;11.974;2023-04-26T06:58:02;96865.38;;;11.72;52.00
61324;BME280;47203;48.428;11.974;2023-04-26T07:00:08;96867.75;;;11.73;51.88
61324;BME280;47203;48.428;11.974;2023-04-26T07:02:14;96851.38;;;11.76;51.71
61324;BME280;47203;48.428;11.974;2023-04-26T07:04:19;96850.06;;;11.79;51.88
61324;BME280;47203;48.428;11.974;2023-04-26T07:06:25;96864.31;;;11.83;51.79
61324;BME280;47203;48.428;11.974;2023-04-26T07:08:30;96865.31;;;11.87;51.97
61324;BME280;47203;48.428;11.974;2023-04-26T07:10:35;96862.69;;;11.92;51.67
61324;BME280;47203;48.428;11.974;2023-04-26T07:12:40;96859.53;;;11.95;51.77
61324;BME280;47203;48.428;11.974;2023-04-26T07:14:48;96863.22;;;11.94;50.83
61324;BME280;47203;48.428;11.974;2023-04-26T07:16:53;96862.69;;;11.92;51.02
61324;BME280;47203;48.428;11.974;2023-04-26T07:18:58;96861.41;;;11.95;50.87
61324;BME280;47203;48.428;11.974;2023-04-26T07:21:03;96859.53;;;11.95;50.61
61324;BME280;47203;48.428;11.974;2023-04-26T07:23:07;96858.75;;;11.95;50.47
61324;BME280;47203;48.428;11.974;2023-04-26T07:25:12;96855.56;;;11.98;50.72
61324;BME280;47203;48.428;11.974;2023-04-26T07:27:17;96854.25;;;12.00;50.62
61324;BME280;47203;48.428;11.974;2023-04-26T07:29:22;96854.75;;;12.02;50.51
61324;BME280;47203;48.428;11.974;2023-04-26T07:31:29;96853.44;;;12.05;50.62
61324;BME280;47203;48.428;11.974;2023-04-26T07:33:35;96852.13;;;12.08;50.37
61324;BME280;47203;48.428;11.974;2023-04-26T07:35:42;96854.22;;;12.11;50.27
61324;BME280;47203;48.428;11.974;2023-04-26T07:37:47;96851.81;;;12.14;50.26
61324;BME280;47203;48.428;11.974;2023-04-26T07:39:52;96855.75;;;12.17;49.72
61324;BME280;47203;48.428;11.974;2023-04-26T07:41:57;96856.81;;;12.21;49.98
61324;BME280;47203;48.428;11.974;2023-04-26T07:44:02;96851.50;;;12.26;49.74
61324;BME280;47203;48.428;11.974;2023-04-26T07:46:07;96855.16;;;12.30;49.69
61324;BME280;47203;48.428;11.974;2023-04-26T07:48:16;96852.53;;;12.35;49.94
61324;BME280;47203;48.428;11.974;2023-04-26T07:50:20;96856.16;;;12.45;50.51
61324;BME280;47203;48.428;11.974;2023-04-26T07:52:25;96854.00;;;12.52;50.19
61324;BME280;47203;48.428;11.974;2023-04-26T07:54:30;96853.69;;;12.58;50.00
61324;BME280;47203;48.428;11.974;2023-04-26T07:56:35;96854.44;;;12.64;49.44
61324;BME280;47203;48.428;11.974;2023-04-26T07:58:40;96858.13;;;12.68;49.64
61324;BME280;47203;48.428;11.974;2023-04-26T08:00:45;96850.19;;;12.73;49.20
61324;BME280;47203;48.428;11.974;2023-04-26T08:02:50;96847.78;;;12.77;49.17
61324;BME280;47203;48.428;11.974;2023-04-26T08:04:58;96851.72;;;12.80;48.71
61324;BME280;47203;48.428;11.974;2023-04-26T08:07:03;96857.78;;;12.80;48.54
61324;BME280;47203;48.428;11.974;2023-04-26T08:09:08;96848.81;;;12.81;49.00
61324;BME280;47203;48.428;11.974;2023-04-26T08:11:14;96853.53;;;12.84;48.77
61324;BME280;47203;48.428;11.974;2023-04-26T08:13:19;96851.41;;;12.86;48.51
61324;BME280;47203;48.428;11.974;2023-04-26T08:15:24;96856.16;;;12.89;48.80
61324;BME280;47203;48.428;11.974;2023-04-26T08:17:29;96855.06;;;12.90;48.63
61324;BME280;47203;48.428;11.974;2023-04-26T08:19:34;96857.44;;;12.92;48.48
61324;BME280;47203;48.428;11.974;2023-04-26T08:21:41;96856.88;;;12.95;48.60
61324;BME280;47203;48.428;11.974;2023-04-26T08:23:46;96849.97;;;13.04;49.03
61324;BME280;47203;48.428;11.974;2023-04-26T08:25:51;96853.56;;;13.19;48.94
61324;BME280;47203;48.428;11.974;2023-04-26T08:27:57;96852.91;;;13.32;48.28
61324;BME280;47203;48.428;11.974;2023-04-26T08:30:02;96854.91;;;13.46;48.19
61324;BME280;47203;48.428;11.974;2023-04-26T08:32:07;96856.63;;;13.60;48.35
61324;BME280;47203;48.428;11.974;2023-04-26T08:34:12;96858.31;;;13.75;47.89
61324;BME280;47203;48.428;11.974;2023-04-26T08:36:16;96854.75;;;13.90;47.90
61324;BME280;47203;48.428;11.974;2023-04-26T08:38:24;96851.41;;;14.04;47.57
61324;BME280;47203;48.428;11.974;2023-04-26T08:40:31;96858.16;;;14.15;47.44
61324;BME280;47203;48.428;11.974;2023-04-26T08:42:38;96850.88;;;14.26;47.38
61324;BME280;47203;48.428;11.974;2023-04-26T08:44:44;96847.03;;;14.37;47.04
61324;BME280;47203;48.428;11.974;2023-04-26T08:46:55;96845.81;;;14.48;46.37
61324;BME280;47203;48.428;11.974;2023-04-26T08:49:12;96848.81;;;14.61;46.18
61324;BME280;47203;48.428;11.974;2023-04-26T08:51:21;96842.09;;;14.69;46.55
61324;BME280;47203;48.428;11.974;2023-04-26T08:53:33;96844.59;;;14.79;46.20
61324;BME280;47203;48.428;11.974;2023-04-26T08:55:40;96845.75;;;14.92;46.47
61324;BME280;47203;48.428;11.974;2023-04-26T08:57:45;96843.94;;;15.06;46.86
61324;BME280;47203;48.428;11.974;2023-04-26T08:59:50;96849.00;;;15.22;46.56
61324;BME280;47203;48.428;11.974;2023-04-26T09:01:57;96847.72;;;15.33;46.68
61324;BME280;47203;48.428;11.974;2023-04-26T09:04:04;96848.84;;;15.46;46.61
61324;BME280;47203;48.428;11.974;2023-04-26T09:06:10;96846.59;;;15.53;46.13
61324;BME280;47203;48.428;11.974;2023-04-26T09:08:16;96846.53;;;15.58;45.38
61324;BME280;47203;48.428;11.974;2023-04-26T09:10:24;96848.28;;;15.63;45.27
61324;BME280;47203;48.428;11.974;2023-04-26T09:12:29;96852.53;;;15.64;45.33
61324;BME280;47203;48.428;11.974;2023-04-26T09:14:34;96854.38;;;15.63;44.86
61324;BME280;47203;48.428;11.974;2023-04-26T09:16:39;96851.53;;;15.60;44.73
61324;BME280;47203;48.428;11.974;2023-04-26T09:18:48;96848.94;;;15.54;43.88
61324;BME280;47203;48.428;11.974;2023-04-26T09:21:03;96842.16;;;15.48;43.96
61324;BME280;47203;48.428;11.974;2023-04-26T09:23:09;96845.19;;;15.42;44.01
61324;BME280;47203;48.428;11.974;2023-04-26T09:25:15;96844.00;;;15.34;43.60
61324;BME280;47203;48.428;11.974;2023-04-26T09:27:31;96841.25;;;15.25;42.39
61324;BME280;47203;48.428;11.974;2023-04-26T09:29:35;96846.13;;;15.18;43.65
61324;BME280;47203;48.428;11.974;2023-04-26T09:31:42;96848.38;;;15.11;43.55
61324;BME280;47203;48.428;11.974;2023-04-26T09:33:57;96851.19;;;15.00;42.86
61324;BME280;47203;48.428;11.974;2023-04-26T09:36:20;96842.59;;;14.90;42.26
61324;BME280;47203;48.428;11.974;2023-04-26T09:38:25;96847.25;;;14.79;43.05
61324;BME280;47203;48.428;11.974;2023-04-26T09:40:31;96843.69;;;14.70;43.27
61324;BME280;47203;48.428;11.974;2023-04-26T09:42:39;96842.50;;;14.62;42.83
61324;BME280;47203;48.428;11.974;2023-04-26T09:44:43;96835.38;;;14.57;42.86
61324;BME280;47203;48.428;11.974;2023-04-26T09:47:00;96838.84;;;14.53;42.13
61324;BME280;47203;48.428;11.974;2023-04-26T09:49:05;96842.31;;;14.53;43.14
61324;BME280;47203;48.428;11.974;2023-04-26T09:51:10;96842.81;;;14.55;43.34
61324;BME280;47203;48.428;11.974;2023-04-26T09:53:29;96844.69;;;14.55;42.15
61324;BME280;47203;48.428;11.974;2023-04-26T09:55:35;96840.16;;;14.55;43.16
61324;BME280;47203;48.428;11.974;2023-04-26T09:57:46;96843.31;;;14.57;42.45
61324;BME280;47203;48.428;11.974;2023-04-26T09:59:52;96830.34;;;14.56;42.84
61324;BME280;47203;48.428;11.974;2023-04-26T10:01:58;96833.78;;;14.56;42.87
61324;BME280;47203;48.428;11.974;2023-04-26T10:04:03;96839.56;;;14.58;43.04
61324;BME280;47203;48.428;11.974;2023-04-26T10:06:11;96834.84;;;14.55;42.59
61324;BME280;47203;48.428;11.974;2023-04-26T10:08:16;96841.22;;;14.54;42.86
61324;BME280;47203;48.428;11.974;2023-04-26T10:10:21;96840.44;;;14.54;42.50
61324;BME280;47203;48.428;11.974;2023-04-26T10:12:26;96847.63;;;14.53;42.87
61324;BME280;47203;48.428;11.974;2023-04-26T10:14:35;96840.94;;;14.56;42.95
61324;BME280;47203;48.428;11.974;2023-04-26T10:16:40;96838.22;;;14.61;43.28
61324;BME280;47203;48.428;11.974;2023-04-26T10:18:45;96840.56;;;14.68;43.47
61324;BME280;47203;48.428;11.974;2023-04-26T10:20:55;96833.81;;;14.75;43.48
61324;BME280;47203;48.428;11.974;2023-04-26T10:23:02;96836.59;;;14.84;43.46
61324;BME280;47203;48.428;11.974;2023-04-26T10:25:10;96832.50;;;14.92;43.83
61324;BME280;47203;48.428;11.974;2023-04-26T10:27:15;96844.03;;;15.01;43.36
61324;BME280;47203;48.428;11.974;2023-04-26T10:29:21;96835.09;;;15.11;43.25
61324;BME280;47203;48.428;11.974;2023-04-26T10:34:20;96826.03;;;15.31;43.71
61324;BME280;47203;48.428;11.974;2023-04-26T10:36:25;96822.44;;;15.41;42.79
61324;BME280;47203;48.428;11.974;2023-04-26T10:38:30;96820.94;;;15.48;42.74
61324;BME280;47203;48.428;11.974;2023-04-26T10:40:37;96825.38;;;15.53;42.45
61324;BME280;47203;48.428;11.974;2023-04-26T10:42:42;96825.00;;;15.60;42.50
61324;BME280;47203;48.428;11.974;2023-04-26T10:44:48;96822.25;;;15.65;42.59
61324;BME280;47203;48.428;11.974;2023-04-26T10:46:55;96822.44;;;15.68;42.09
61324;BME280;47203;48.428;11.974;2023-04-26T10:49:15;96820.28;;;15.70;40.83
61324;BME280;47203;48.428;11.974;2023-04-26T10:51:20;96830.13;;;15.70;41.77
61324;BME280;47203;48.428;11.974;2023-04-26T10:53:26;96827.47;;;15.70;41.52
61324;BME280;47203;48.428;11.974;2023-04-26T10:55:37;96823.22;;;15.69;40.71
61324;BME280;47203;48.428;11.974;2023-04-26T10:57:47;96820.09;;;15.67;40.69
61324;BME280;47203;48.428;11.974;2023-04-26T11:00:17;96819.41;;;15.61;40.07
61324;BME280;47203;48.428;11.974;2023-04-26T11:02:46;96808.69;;;15.52;39.97